createdAt,value
2023-02-03T00:01:22.987Z,101019.69
2023-02-03T00:03:49.626Z,101023.66
2023-02-03T00:06:16.257Z,101018.75
2023-02-03T00:08:42.818Z,101006.50
2023-02-03T00:11:09.329Z,101005.09
2023-02-03T00:13:36.363Z,101005.53
2023-02-03T00:16:02.884Z,101009.69
2023-02-03T00:18:29.351Z,101009.97
2023-02-03T00:20:55.824Z,101011.44
2023-02-03T00:23:22.284Z,101003.69
2023-02-03T00:25:48.841Z,100992.41
2023-02-03T00:28:15.328Z,100998.66
2023-02-03T00:30:41.789Z,101003.09
2023-02-03T00:33:08.218Z,101009.13
2023-02-03T00:35:39.029Z,100987.03
2023-02-03T00:38:05.627Z,100981.34
2023-02-03T00:40:32.236Z,100977.78
2023-02-03T00:42:58.714Z,100971.28
2023-02-03T00:45:26.884Z,100983.09
2023-02-03T00:47:53.328Z,100972.13
2023-02-03T00:50:19.892Z,100986.19
2023-02-03T00:52:46.339Z,100977.97
2023-02-03T00:55:12.781Z,100983.84
2023-02-03T00:57:39.295Z,100985.53
2023-02-03T01:00:06.451Z,100980.22
2023-02-03T01:02:33.029Z,100974.47
2023-02-03T01:04:59.495Z,100984.00
2023-02-03T01:07:25.976Z,100975.16
2023-02-03T01:09:52.422Z,100972.72
2023-02-03T01:12:18.865Z,100956.88
2023-02-03T01:14:45.331Z,100970.06
2023-02-03T01:17:11.837Z,100974.25
2023-02-03T01:19:38.301Z,100965.59
2023-02-03T01:22:04.827Z,100948.69
2023-02-03T01:24:31.337Z,100959.03
2023-02-03T01:26:57.870Z,100964.63
2023-02-03T01:29:24.820Z,100986.72
2023-02-03T01:31:51.495Z,100968.13
2023-02-03T01:34:18.596Z,100970.72
2023-02-03T01:36:46.961Z,100978.94
2023-02-03T01:39:13.627Z,100976.44
2023-02-03T01:41:41.345Z,100984.31
2023-02-03T01:44:46.129Z,100985.97
2023-02-03T01:47:17.534Z,100977.53
2023-02-03T01:49:53.298Z,100973.59
2023-02-03T01:52:19.905Z,100965.72
2023-02-03T01:54:50.128Z,100963.06
2023-02-03T01:57:24.857Z,100958.13
2023-02-03T01:59:53.980Z,100960.00
2023-02-03T02:02:20.793Z,100969.88
2023-02-03T02:04:50.061Z,100964.53
2023-02-03T02:07:16.825Z,100951.31
2023-02-03T02:09:44.026Z,100961.28
2023-02-03T02:12:11.917Z,100943.28
2023-02-03T02:14:39.774Z,100936.91
2023-02-03T02:17:20.783Z,100934.44
2023-02-03T02:19:56.296Z,100929.47
2023-02-03T02:22:33.613Z,100911.28
2023-02-03T02:25:19.424Z,100923.91
2023-02-03T02:28:22.837Z,100910.25
2023-02-03T02:31:27.392Z,100911.72
2023-02-03T02:34:08.338Z,100910.88
2023-02-03T02:37:02.498Z,100915.44
2023-02-03T02:39:40.301Z,100885.28
2023-02-03T02:42:23.902Z,100879.91
2023-02-03T02:44:59.106Z,100848.06
2023-02-03T02:47:25.558Z,100854.69
2023-02-03T02:50:25.307Z,100843.75
2023-02-03T02:52:53.650Z,100851.41
2023-02-03T02:55:32.787Z,100857.56
2023-02-03T02:58:04.900Z,100862.56
2023-02-03T03:00:31.717Z,100842.72
2023-02-03T03:03:06.977Z,100863.16
2023-02-03T03:05:33.584Z,100838.19
2023-02-03T03:08:02.905Z,100843.13
2023-02-03T03:10:31.589Z,100822.06
2023-02-03T03:13:04.830Z,100825.56
2023-02-03T03:15:33.919Z,100799.31
2023-02-03T03:18:06.403Z,100811.28
2023-02-03T03:20:35.300Z,100826.19
2023-02-03T03:23:07.196Z,100826.97
2023-02-03T03:25:41.644Z,100840.00
2023-02-03T03:28:27.534Z,100850.72
2023-02-03T03:30:54.285Z,100857.16
2023-02-03T03:33:22.871Z,100849.09
2023-02-03T03:35:58.490Z,100852.19
2023-02-03T03:38:33.721Z,100859.63
2023-02-03T03:41:08.192Z,100862.09
2023-02-03T03:43:40.067Z,100846.19
2023-02-03T03:46:14.496Z,100858.78
2023-02-03T03:49:02.883Z,100838.53
2023-02-03T03:51:48.955Z,100814.16
2023-02-03T03:54:19.114Z,100822.00
2023-02-03T03:56:56.200Z,100826.75
2023-02-03T03:59:25.747Z,100801.13
2023-02-03T04:01:52.935Z,100800.50
2023-02-03T04:04:20.902Z,100801.34
2023-02-03T04:06:47.423Z,100801.75
2023-02-03T04:09:13.926Z,100812.91
2023-02-03T04:11:59.099Z,100795.53
2023-02-03T04:14:25.643Z,100788.91
2023-02-03T04:16:52.164Z,100795.94
2023-02-03T04:19:18.701Z,100792.66
2023-02-03T04:21:45.217Z,100793.25
2023-02-03T04:24:12.165Z,100776.53
2023-02-03T04:26:39.073Z,100779.81
2023-02-03T04:29:06.124Z,100782.28
2023-02-03T04:31:32.704Z,100781.47
2023-02-03T04:33:59.266Z,100769.69
2023-02-03T04:36:25.891Z,100737.00
2023-02-03T04:38:52.400Z,100774.84
2023-02-03T04:41:18.972Z,100755.81
2023-02-03T04:43:45.458Z,100775.25
2023-02-03T04:46:12.257Z,100781.22
2023-02-03T04:48:38.754Z,100787.03
2023-02-03T04:51:07.233Z,100769.88
2023-02-03T04:53:34.237Z,100766.56
2023-02-03T04:56:00.960Z,100777.72
2023-02-03T04:58:27.362Z,100758.56
2023-02-03T05:00:54.878Z,100771.47
2023-02-03T05:03:23.503Z,100774.81
2023-02-03T05:05:51.376Z,100771.94
2023-02-03T05:08:17.924Z,100766.31
2023-02-03T05:10:44.366Z,100764.09
2023-02-03T05:13:10.953Z,100767.78
2023-02-03T05:15:37.487Z,100765.28
2023-02-03T05:18:04.118Z,100761.56
2023-02-03T05:20:30.575Z,100756.19
2023-02-03T05:22:58.700Z,100754.09
2023-02-03T05:25:25.223Z,100762.38
2023-02-03T05:27:51.713Z,100746.25
2023-02-03T05:30:18.490Z,100752.47
2023-02-03T05:32:44.839Z,100749.44
2023-02-03T05:35:11.290Z,100740.84
2023-02-03T05:37:37.723Z,100747.91
2023-02-03T05:40:25.406Z,100718.34
2023-02-03T05:42:51.984Z,100727.75
2023-02-03T05:45:18.476Z,100708.41
2023-02-03T05:47:44.917Z,100711.09
2023-02-03T05:50:11.547Z,100713.59
2023-02-03T05:52:38.021Z,100727.03
2023-02-03T05:55:04.817Z,100736.75
2023-02-03T05:57:32.343Z,100724.25
2023-02-03T05:59:59.038Z,100722.91
2023-02-03T06:02:25.561Z,100717.72
2023-02-03T06:04:52.096Z,100725.59
2023-02-03T06:07:18.557Z,100716.91
2023-02-03T06:09:45.218Z,100700.38
2023-02-03T06:12:11.684Z,100705.34
2023-02-03T06:14:38.135Z,100711.13
2023-02-03T06:17:04.573Z,100726.00
2023-02-03T06:19:31.026Z,100722.50
2023-02-03T06:21:57.529Z,100720.63
2023-02-03T06:24:23.997Z,100704.94
2023-02-03T06:26:50.533Z,100704.94
2023-02-03T06:29:16.989Z,100721.28
2023-02-03T06:31:43.557Z,100725.19
2023-02-03T06:34:10.133Z,100715.69
2023-02-03T06:36:36.571Z,100701.22
2023-02-03T06:39:03.062Z,100713.00
2023-02-03T06:41:30.783Z,100731.81
2023-02-03T06:43:57.409Z,100718.81
2023-02-03T06:46:28.162Z,100704.94
2023-02-03T06:48:54.692Z,100714.03
2023-02-03T06:51:21.185Z,100717.34
2023-02-03T06:53:47.651Z,100709.50
2023-02-03T06:56:14.109Z,100710.91
2023-02-03T06:58:40.574Z,100703.69
2023-02-03T07:01:07.238Z,100715.25
2023-02-03T07:03:33.722Z,100702.44
2023-02-03T07:06:00.148Z,100702.84
2023-02-03T07:08:26.629Z,100711.53
2023-02-03T07:10:54.770Z,100708.84
2023-02-03T07:13:21.228Z,100709.88
2023-02-03T07:15:47.750Z,100698.53
2023-02-03T07:18:18.039Z,100703.91
2023-02-03T07:20:47.891Z,100715.69
2023-02-03T07:23:14.334Z,100714.91
2023-02-03T07:25:40.797Z,100677.31
2023-02-03T07:28:07.363Z,100683.28
2023-02-03T07:30:33.962Z,100677.31
2023-02-03T07:33:00.500Z,100680.19
2023-02-03T07:35:27.496Z,100678.97
2023-02-03T07:37:54.081Z,100664.53
2023-02-03T07:40:20.932Z,100695.94
2023-02-03T07:42:49.125Z,100678.59
2023-02-03T07:45:18.199Z,100667.88
2023-02-03T07:47:44.953Z,100670.34
2023-02-03T07:50:11.683Z,100651.38
2023-02-03T07:52:38.543Z,100666.22
2023-02-03T07:55:05.323Z,100648.47
2023-02-03T07:57:31.685Z,100647.50
2023-02-03T07:59:58.193Z,100664.34
2023-02-03T08:02:24.659Z,100626.97
2023-02-03T08:04:51.177Z,100627.78
2023-02-03T08:07:17.641Z,100659.22
2023-02-03T08:09:44.096Z,100663.81
2023-02-03T08:12:10.555Z,100667.91
2023-02-03T08:14:37.025Z,100639.38
2023-02-03T08:17:03.508Z,100651.41
2023-02-03T08:19:29.974Z,100661.28
2023-02-03T08:21:56.796Z,100641.44
2023-02-03T08:24:23.227Z,100650.19
2023-02-03T08:26:49.790Z,100658.44
2023-02-03T08:29:16.279Z,100625.78
2023-02-03T08:31:42.998Z,100634.84
2023-02-03T08:34:09.465Z,100634.31
2023-02-03T08:36:39.293Z,100633.63
2023-02-03T08:39:08.626Z,100639.41
2023-02-03T08:41:35.090Z,100632.81
2023-02-03T08:44:01.760Z,100627.81
2023-02-03T08:46:28.431Z,100634.84
2023-02-03T08:48:57.180Z,100632.78
2023-02-03T08:51:24.604Z,100649.50
2023-02-03T08:53:51.099Z,100648.47
2023-02-03T08:56:17.887Z,100658.19
2023-02-03T08:58:44.294Z,100642.53
2023-02-03T09:01:13.524Z,100645.53
2023-02-03T09:03:40.517Z,100636.88
2023-02-03T09:06:08.058Z,100637.47
2023-02-03T09:08:34.779Z,100638.50
2023-02-03T09:11:01.140Z,100650.34
2023-02-03T09:13:27.639Z,100651.72
2023-02-03T09:15:54.070Z,100673.66
2023-02-03T09:18:20.554Z,100632.91
2023-02-03T09:20:47.040Z,100641.34
2023-02-03T09:23:13.571Z,100661.00
2023-02-03T09:25:40.034Z,100666.97
2023-02-03T09:28:06.580Z,100665.72
2023-02-03T09:30:33.124Z,100674.41
2023-02-03T09:32:59.647Z,100676.88
2023-02-03T09:35:27.063Z,100679.56
2023-02-03T09:37:53.607Z,100666.13
2023-02-03T09:40:26.620Z,100673.91
2023-02-03T09:43:03.589Z,100654.06
2023-02-03T09:45:31.225Z,100632.97
2023-02-03T09:48:14.695Z,100641.66
2023-02-03T09:50:43.918Z,100644.13
2023-02-03T09:53:41.031Z,100632.03
2023-02-03T09:56:17.990Z,100620.53
2023-02-03T09:58:44.867Z,100636.03
2023-02-03T10:01:13.918Z,100643.06
2023-02-03T10:03:47.988Z,100655.66
2023-02-03T10:06:36.112Z,100656.28
2023-02-03T10:09:34.976Z,100653.53
2023-02-03T10:12:20.291Z,100640.28
2023-02-03T10:14:55.710Z,100646.91
2023-02-03T10:17:33.875Z,100636.59
2023-02-03T10:20:06.705Z,100611.56
2023-02-03T10:22:40.456Z,100632.50
2023-02-03T10:25:39.403Z,100637.59
2023-02-03T10:28:16.706Z,100653.31
2023-02-03T10:30:46.179Z,100651.13
2023-02-03T10:33:16.465Z,100660.56
2023-02-03T10:35:49.968Z,100643.81
2023-02-03T10:38:35.132Z,100668.81
2023-02-03T10:41:02.683Z,100649.66
2023-02-03T10:43:50.386Z,100643.25
2023-02-03T10:46:26.851Z,100646.69
2023-02-03T10:48:53.524Z,100674.06
2023-02-03T10:51:25.498Z,100672.97
2023-02-03T10:53:55.736Z,100673.84
2023-02-03T10:56:36.352Z,100675.84
2023-02-03T10:59:03.058Z,100673.03
2023-02-03T11:01:29.448Z,100693.69
2023-02-03T11:04:00.296Z,100698.97
2023-02-03T11:06:28.265Z,100707.94
2023-02-03T11:08:55.192Z,100708.53
2023-02-03T11:11:25.422Z,100694.88
2023-02-03T11:14:05.112Z,100701.91
2023-02-03T11:16:34.461Z,100667.78
2023-02-03T11:19:06.470Z,100678.31
2023-02-03T11:21:38.822Z,100691.75
2023-02-03T11:24:26.843Z,100679.09
2023-02-03T11:27:06.898Z,100687.81
2023-02-03T11:30:18.080Z,100692.72
2023-02-03T11:32:47.847Z,100664.66
2023-02-03T11:35:29.636Z,100709.28
2023-02-03T11:37:58.495Z,100682.44
2023-02-03T11:40:31.182Z,100682.00
2023-02-03T11:42:57.553Z,100701.84
2023-02-03T11:45:28.612Z,100695.19
2023-02-03T11:48:15.219Z,100690.66
2023-02-03T11:51:12.796Z,100686.25
2023-02-03T11:53:55.154Z,100708.81
2023-02-03T11:56:22.822Z,100722.47
2023-02-03T11:59:20.089Z,100710.81
2023-02-03T12:02:21.487Z,100720.69
2023-02-03T12:05:06.304Z,100727.53
2023-02-03T12:07:38.636Z,100718.66
2023-02-03T12:10:30.189Z,100718.16
2023-02-03T12:13:16.432Z,100740.50
2023-02-03T12:15:54.803Z,100755.81
2023-02-03T12:18:42.918Z,100733.09
2023-02-03T12:21:21.376Z,100759.94
2023-02-03T12:24:14.415Z,100747.94
2023-02-03T12:26:54.471Z,100760.41
2023-02-03T12:29:29.959Z,100751.69
2023-02-03T12:32:21.331Z,100742.97
2023-02-03T12:34:57.050Z,100761.59
2023-02-03T12:37:27.976Z,100757.03
2023-02-03T12:39:58.566Z,100766.75
2023-02-03T12:42:39.699Z,100758.91
2023-02-03T12:45:14.676Z,100748.53
2023-02-03T12:47:56.745Z,100759.50
2023-02-03T12:50:50.498Z,100767.31
2023-02-03T12:53:24.909Z,100750.59
2023-02-03T12:56:01.019Z,100764.47
2023-02-03T12:58:36.660Z,100765.66
2023-02-03T13:01:20.722Z,100743.69
2023-02-03T13:04:08.949Z,100751.94
2023-02-03T13:06:54.895Z,100756.50
2023-02-03T13:09:28.490Z,100738.94
2023-02-03T13:12:11.049Z,100759.19
2023-02-03T13:14:49.139Z,100758.13
2023-02-03T13:17:26.765Z,100775.13
2023-02-03T13:19:59.651Z,100772.22
2023-02-03T13:22:26.803Z,100771.00
2023-02-03T13:25:17.978Z,100762.88
2023-02-03T13:28:04.518Z,100773.81
2023-02-03T13:30:49.016Z,100757.03
2023-02-03T13:33:51.026Z,100763.78
2023-02-03T13:36:34.046Z,100778.75
2023-02-03T13:39:22.117Z,100765.34
2023-02-03T13:41:52.173Z,100797.88
2023-02-03T13:44:25.864Z,100782.53
2023-02-03T13:46:52.779Z,100788.56
2023-02-03T13:49:27.344Z,100801.16
2023-02-03T13:51:54.695Z,100806.38
2023-02-03T13:54:26.145Z,100808.19
2023-02-03T13:57:02.453Z,100815.66
2023-02-03T13:59:38.096Z,100823.47
2023-02-03T14:02:19.983Z,100828.41
2023-02-03T14:04:46.520Z,100828.06
2023-02-03T14:07:34.273Z,100827.97
2023-02-03T14:10:24.379Z,100818.03
2023-02-03T14:12:50.776Z,100821.41
2023-02-03T14:15:23.110Z,100834.03
2023-02-03T14:17:52.307Z,100829.50
2023-02-03T14:20:27.905Z,100828.47
2023-02-03T14:23:06.697Z,100830.56
2023-02-03T14:25:59.137Z,100823.47
2023-02-03T14:28:38.962Z,100831.38
2023-02-03T14:31:32.748Z,100830.53
2023-02-03T14:34:07.934Z,100846.31
2023-02-03T14:36:43.376Z,100859.59
2023-02-03T14:39:20.017Z,100845.91
2023-02-03T14:42:11.413Z,100838.84
2023-02-03T14:45:22.344Z,100838.06
2023-02-03T14:48:11.047Z,100855.88
2023-02-03T14:50:52.448Z,100847.22
2023-02-03T14:53:31.033Z,100832.31
2023-02-03T14:56:18.936Z,100845.19
2023-02-03T14:58:48.252Z,100833.03
2023-02-03T15:01:47.526Z,100845.53
2023-02-03T15:04:14.782Z,100843.75
2023-02-03T15:06:47.917Z,100847.91
2023-02-03T15:09:27.671Z,100860.13
2023-02-03T15:11:54.811Z,100864.06
2023-02-03T15:14:22.926Z,100865.53
2023-02-03T15:17:01.593Z,100864.66
2023-02-03T15:19:35.825Z,100876.31
2023-02-03T15:22:02.819Z,100880.44
2023-02-03T15:24:39.247Z,100875.47
2023-02-03T15:27:05.720Z,100870.97
2023-02-03T15:29:34.034Z,100874.06
2023-02-03T15:32:03.247Z,100865.56
2023-02-03T15:34:36.235Z,100882.97
2023-02-03T15:37:08.803Z,100876.16
2023-02-03T15:39:48.404Z,100878.63
2023-02-03T15:42:25.536Z,100889.78
2023-02-03T15:45:33.086Z,100889.56
2023-02-03T15:48:18.192Z,100893.75
2023-02-03T15:50:54.650Z,100906.56
2023-02-03T15:53:46.697Z,100928.91
2023-02-03T15:56:42.829Z,100938.03
2023-02-03T15:59:23.064Z,100924.78
2023-02-03T16:01:49.806Z,100938.09
2023-02-03T16:04:16.367Z,100940.91
2023-02-03T16:06:47.728Z,100967.66
2023-02-03T16:09:34.108Z,100978.00
2023-02-03T16:12:23.532Z,100984.19
2023-02-03T16:14:50.952Z,100997.66
2023-02-03T16:17:30.552Z,100999.91
2023-02-03T16:20:12.382Z,100996.63
2023-02-03T16:22:47.183Z,100993.13
2023-02-03T16:25:28.822Z,101012.97
2023-02-03T16:28:16.088Z,101012.56
2023-02-03T16:31:20.330Z,101013.78
2023-02-03T16:34:08.553Z,101019.59
2023-02-03T16:36:58.516Z,101028.28
2023-02-03T16:39:45.458Z,101029.94
2023-02-03T16:42:38.845Z,101018.75
2023-02-03T16:45:33.987Z,101042.34
2023-02-03T16:48:20.512Z,101038.19
2023-02-03T16:50:53.106Z,101044.81
2023-02-03T16:53:30.989Z,101031.16
2023-02-03T16:56:00.544Z,101032.59
2023-02-03T16:58:27.969Z,101050.19
2023-02-03T17:00:55.550Z,101043.13
2023-02-03T17:03:25.077Z,101047.69
2023-02-03T17:05:52.175Z,101061.34
2023-02-03T17:08:21.887Z,101043.78
2023-02-03T17:10:49.451Z,101054.72
2023-02-03T17:13:17.805Z,101052.22
2023-02-03T17:15:46.967Z,101050.97
2023-02-03T17:18:15.208Z,101051.41
2023-02-03T17:20:43.553Z,101055.94
2023-02-03T17:23:10.799Z,101053.44
2023-02-03T17:25:38.452Z,101026.59
2023-02-03T17:28:08.962Z,101014.81
2023-02-03T17:30:35.965Z,101007.59
2023-02-03T17:33:11.791Z,101026.19
2023-02-03T17:35:43.603Z,101016.69
2023-02-03T17:38:11.737Z,101033.59
2023-02-03T17:54:11.446Z,101073.03
2023-02-03T17:56:37.959Z,101090.19
2023-02-03T17:59:05.518Z,101078.63
2023-02-03T18:01:32.330Z,101088.94
2023-02-03T18:04:03.656Z,101080.88
2023-02-03T18:06:31.622Z,101084.59
2023-02-03T18:09:02.430Z,101080.22
2023-02-03T18:11:30.333Z,101093.84
2023-02-03T18:13:56.889Z,101090.53
2023-02-03T18:16:26.618Z,101096.34
2023-02-03T18:18:53.875Z,101102.09
2023-02-03T18:21:22.411Z,101111.16
2023-02-03T18:23:51.136Z,101114.88
2023-02-03T18:26:19.908Z,101125.63
2023-02-03T18:28:47.247Z,101116.31
2023-02-03T18:31:17.696Z,101105.41
2023-02-03T18:33:46.248Z,101140.69
2023-02-03T18:36:14.290Z,101141.09
2023-02-03T18:38:42.862Z,101147.06
2023-02-03T18:41:14.297Z,101163.19
2023-02-03T18:43:41.199Z,101157.41
2023-02-03T18:46:10.240Z,101163.78
2023-02-03T18:48:37.254Z,101158.81
2023-02-03T18:51:08.520Z,101173.50
2023-02-03T18:53:36.148Z,101167.25
2023-02-03T18:56:06.052Z,101168.91
2023-02-03T18:58:32.508Z,101176.94
2023-02-03T19:00:59.242Z,101175.72
2023-02-03T19:03:26.853Z,101173.19
2023-02-03T19:05:54.297Z,101177.38
2023-02-03T19:08:20.852Z,101193.25
2023-02-03T19:10:51.410Z,101189.34
2023-02-03T19:13:19.606Z,101170.50
2023-02-03T19:15:47.731Z,101188.84
2023-02-03T19:18:15.957Z,101189.66
2023-02-03T19:20:43.946Z,101190.72
2023-02-03T19:23:11.924Z,101197.31
2023-02-03T19:25:39.490Z,101194.81
2023-02-03T19:28:14.348Z,101199.13
2023-02-03T19:30:44.360Z,101195.63
2023-02-03T19:33:11.022Z,101212.94
2023-02-03T19:35:38.711Z,101220.81
2023-02-03T19:38:05.388Z,101214.16
2023-02-03T19:40:32.002Z,101227.41
2023-02-03T19:42:59.221Z,101239.78
2023-02-03T19:45:25.844Z,101245.75
2023-02-03T19:47:52.428Z,101245.91
2023-02-03T19:50:19.131Z,101258.72
2023-02-03T19:52:47.233Z,101258.91
2023-02-03T19:55:13.849Z,101254.78
2023-02-03T19:57:40.489Z,101273.53
2023-02-03T20:00:07.688Z,101283.38
2023-02-03T20:02:34.231Z,101293.03
2023-02-03T20:05:01.046Z,101276.47
2023-02-03T20:07:28.661Z,101292.19
2023-02-03T20:09:55.397Z,101285.13
2023-02-03T20:12:22.030Z,101301.75
2023-02-03T20:14:48.582Z,101307.91
2023-02-03T20:17:15.090Z,101302.53
2023-02-03T20:19:41.598Z,101303.09
2023-02-03T20:22:08.132Z,101308.66
2023-02-03T20:24:35.066Z,101311.72
2023-02-03T20:27:02.103Z,101318.69
2023-02-03T20:29:28.662Z,101318.03
2023-02-03T20:31:55.764Z,101313.50
2023-02-03T20:34:22.986Z,101307.69
2023-02-03T20:36:49.544Z,101303.53
2023-02-03T20:39:20.298Z,101313.69
2023-02-03T20:41:47.913Z,101309.09
2023-02-03T20:44:15.518Z,101308.44
2023-02-03T20:46:42.078Z,101312.97
2023-02-03T20:49:13.784Z,101310.56
2023-02-03T20:51:40.864Z,101312.13
2023-02-03T20:54:16.204Z,101323.78
2023-02-03T20:56:42.807Z,101305.94
2023-02-03T20:59:12.493Z,101328.69
2023-02-03T21:01:39.515Z,101316.69
2023-02-03T21:04:36.005Z,101322.94
2023-02-03T21:07:18.108Z,101322.56
2023-02-03T21:09:44.695Z,101310.94
2023-02-03T21:12:12.996Z,101311.78
2023-02-03T21:14:43.088Z,101311.78
2023-02-03T21:17:35.984Z,101317.28
2023-02-03T21:20:02.487Z,101321.66
2023-02-03T21:22:30.401Z,101322.31
2023-02-03T21:25:01.416Z,101322.94
2023-02-03T21:27:34.915Z,101345.22
2023-02-03T21:30:21.944Z,101338.19
2023-02-03T21:32:48.513Z,101341.06
2023-02-03T21:35:37.252Z,101337.88
2023-02-03T23:44:51.289Z,101620.00
2023-02-03T23:47:17.701Z,101623.19
2023-02-03T23:49:44.198Z,101623.69
2023-02-03T23:52:10.720Z,101636.41
2023-02-03T23:54:37.230Z,101636.75
2023-02-03T23:57:04.859Z,101639.63
2023-02-03T23:59:31.692Z,101631.78
